OUR AIRPORTS

Not only does Van Anda Aviation provide a wide selection of affordable planes to rent, we also provide various locations across the Central Florida region for your accessibility. Van Anda Aviation is built for pilots, by pilots. We want to ensure pilots across Central Florida have easy access to aircraft rental, without jumping through all the red-tape. Simply go for a checkout with one of our authorized instructors, and you’re good to fly! Below are just a few airports we currently fly from.

If you want easy, accessible flying, register for an account with us today – it’s free!

ORLANDO EXECUTIVE AIRPORT

  • Runways: 07/25 and 13/31

  • Weather SummaryVFR

  • METAR: KORL 190053Z 15007KT 10SM FEW100 26/22 A3001 RMK AO2 LTG DSNT E AND SE SLP164 T02610217

KISSIMMEE GATEWAY AIRPORT

  • Runways: 06/24 and 15/33

  • Weather Summary: VFR

  • METAR: KISM 190056Z 11009KT 10SM BKN080 25/23 A3002 RMK AO2 LTG DSNT NE SLP165 T02500228 PNO $

ORLANDO NORTH AIRPARK

MERRITT ISLAND AIRPORT